<?xml version="1.0" encoding="UTF-8" standalone="no" ?><gpx xmlns="http://www.topografix.com/GPX/1/1" xmlns:gpxx="http://www.garmin.com/xmlschemas/GpxExtensions/v3" xmlns:wptx1="http://www.garmin.com/xmlschemas/WaypointExtension/v1" xmlns:gpxtpx="http://www.garmin.com/xmlschemas/TrackPointExtension/v1" creator="Dakota 20" version="1.1" xmlns:xsi="http://www.w3.org/2001/XMLSchema-instance" xsi:schemaLocation="http://www.topografix.com/GPX/1/1 http://www.topografix.com/GPX/1/1/gpx.xsd http://www.garmin.com/xmlschemas/GpxExtensions/v3 http://www8.garmin.com/xmlschemas/GpxExtensionsv3.xsd http://www.garmin.com/xmlschemas/WaypointExtension/v1 http://www8.garmin.com/xmlschemas/WaypointExtensionv1.xsd http://www.garmin.com/xmlschemas/TrackPointExtension/v1 http://www.garmin.com/xmlschemas/TrackPointExtensionv1.xsd"><metadata><link href="http://www.garmin.com"><text>Garmin International</text></link><time>2015-10-14T20:49:08Z</time></metadata><trk><name>Current Track: 14 OCT 2015 10:01</name><extensions><gpxx:TrackExtension><gpxx:DisplayColor>Cyan</gpxx:DisplayColor></gpxx:TrackExtension></extensions><trkseg><trkpt lat="51.9028230663" lon="-1.6475167964"><ele>118.38</ele><time>2015-10-14T09:01:49Z</time></trkpt><trkpt lat="51.9028556719" lon="-1.6475246754"><ele>116.94</ele><time>2015-10-14T09:02:02Z</time></trkpt><trkpt lat="51.9029176980" lon="-1.6474534292"><ele>117.42</ele><time>2015-10-14T09:02:09Z</time></trkpt><trkpt lat="51.9029197097" lon="-1.6473986115"><ele>116.46</ele><time>2015-10-14T09:02:16Z</time></trkpt><trkpt lat="51.9029437657" lon="-1.6473643295"><ele>116.94</ele><time>2015-10-14T09:02:19Z</time></trkpt><trkpt lat="51.9030387327" lon="-1.6470979527"><ele>116.46</ele><time>2015-10-14T09:02:33Z</time></trkpt><trkpt lat="51.9030669797" lon="-1.6469930112"><ele>116.94</ele><time>2015-10-14T09:02:39Z</time></trkpt><trkpt lat="51.9030729309" lon="-1.6469550412"><ele>116.46</ele><time>2015-10-14T09:02:41Z</time></trkpt><trkpt lat="51.9030602742" lon="-1.6467455775"><ele>116.46</ele><time>2015-10-14T09:02:57Z</time></trkpt><trkpt lat="51.9030528143" lon="-1.6466635186"><ele>117.42</ele><time>2015-10-14T09:03:13Z</time></trkpt><trkpt lat="51.9030385651" lon="-1.6466045100"><ele>116.46</ele><time>2015-10-14T09:03:20Z</time></trkpt><trkpt lat="51.9030636270" lon="-1.6464151628"><ele>116.94</ele><time>2015-10-14T09:03:33Z</time></trkpt><trkpt lat="51.9031735137" lon="-1.6462075431"><ele>116.94</ele><time>2015-10-14T09:03:49Z</time></trkpt><trkpt lat="51.9032477774" lon="-1.6460456885"><ele>116.94</ele><time>2015-10-14T09:04:05Z</time></trkpt><trkpt lat="51.9033005834" lon="-1.6458954848"><ele>116.94</ele><time>2015-10-14T09:04:18Z</time></trkpt><trkpt lat="51.9034088776" lon="-1.6456839256"><ele>116.94</ele><time>2015-10-14T09:04:35Z</time></trkpt><trkpt lat="51.9035220332" lon="-1.6454620566"><ele>116.94</ele><time>2015-10-14T09:04:52Z</time></trkpt><trkpt lat="51.9035316724" lon="-1.6454115137"><ele>116.94</ele><time>2015-10-14T09:05:06Z</time></trkpt><trkpt lat="51.9034424890" lon="-1.6452278662"><ele>116.94</ele><time>2015-10-14T09:05:21Z</time></trkpt><trkpt lat="51.9033657946" lon="-1.6450540256"><ele>117.42</ele><time>2015-10-14T09:05:36Z</time></trkpt><trkpt lat="51.9033063669" lon="-1.6449474078"><ele>117.42</ele><time>2015-10-14T09:05:46Z</time></trkpt><trkpt lat="51.9032163452" lon="-1.6447106190"><ele>117.90</ele><time>2015-10-14T09:06:03Z</time></trkpt><trkpt lat="51.9030942209" lon="-1.6445329227"><ele>118.86</ele><time>2015-10-14T09:06:18Z</time></trkpt><trkpt lat="51.9030031096" lon="-1.6443711519"><ele>119.34</ele><time>2015-10-14T09:06:34Z</time></trkpt><trkpt lat="51.9029177818" lon="-1.6441357881"><ele>119.82</ele><time>2015-10-14T09:06:49Z</time></trkpt><trkpt lat="51.9028730225" lon="-1.6439468600"><ele>120.30</ele><time>2015-10-14T09:07:02Z</time></trkpt><trkpt lat="51.9027712662" lon="-1.6437595244"><ele>121.26</ele><time>2015-10-14T09:07:18Z</time></trkpt><trkpt lat="51.9027488865" lon="-1.6437180340"><ele>121.26</ele><time>2015-10-14T09:07:22Z</time></trkpt><trkpt lat="51.9027325418" lon="-1.6436945647"><ele>121.26</ele><time>2015-10-14T09:07:24Z</time></trkpt><trkpt lat="51.9026029576" lon="-1.6434136033"><ele>122.22</ele><time>2015-10-14T09:07:45Z</time></trkpt><trkpt lat="51.9024996087" lon="-1.6431075800"><ele>122.71</ele><time>2015-10-14T09:08:04Z</time></trkpt><trkpt lat="51.9024226628" lon="-1.6428727191"><ele>123.19</ele><time>2015-10-14T09:08:19Z</time></trkpt><trkpt lat="51.9023136143" lon="-1.6425811965"><ele>123.67</ele><time>2015-10-14T09:08:38Z</time></trkpt><trkpt lat="51.9022586290" lon="-1.6424165759"><ele>123.67</ele><time>2015-10-14T09:08:55Z</time></trkpt><trkpt lat="51.9021966029" lon="-1.6422495246"><ele>123.67</ele><time>2015-10-14T09:09:11Z</time></trkpt><trkpt lat="51.9020703714" lon="-1.6419820581"><ele>124.15</ele><time>2015-10-14T09:09:30Z</time></trkpt><trkpt lat="51.9019733090" lon="-1.6417828202"><ele>123.67</ele><time>2015-10-14T09:09:45Z</time></trkpt><trkpt lat="51.9019494206" lon="-1.6417518072"><ele>124.15</ele><time>2015-10-14T09:09:48Z</time></trkpt><trkpt lat="51.9017645996" lon="-1.6415626276"><ele>124.63</ele><time>2015-10-14T09:10:07Z</time></trkpt><trkpt lat="51.9015729055" lon="-1.6414621286"><ele>125.11</ele><time>2015-10-14T09:10:27Z</time></trkpt><trkpt lat="51.9014086202" lon="-1.6413474642"><ele>124.63</ele><time>2015-10-14T09:10:46Z</time></trkpt><trkpt lat="51.9012341928" lon="-1.6412198916"><ele>124.63</ele><time>2015-10-14T09:11:06Z</time></trkpt><trkpt lat="51.9010761939" lon="-1.6410687659"><ele>125.11</ele><time>2015-10-14T09:11:25Z</time></trkpt><trkpt lat="51.9009968173" lon="-1.6409554426"><ele>124.63</ele><time>2015-10-14T09:11:41Z</time></trkpt><trkpt lat="51.9009803887" lon="-1.6409395169"><ele>124.63</ele><time>2015-10-14T09:11:44Z</time></trkpt><trkpt lat="51.9009640440" lon="-1.6409199871"><ele>124.63</ele><time>2015-10-14T09:11:46Z</time></trkpt><trkpt lat="51.9008414168" lon="-1.6408120282"><ele>125.11</ele><time>2015-10-14T09:12:02Z</time></trkpt><trkpt lat="51.9007631298" lon="-1.6407121997"><ele>125.11</ele><time>2015-10-14T09:12:10Z</time></trkpt><trkpt lat="51.9006156921" lon="-1.6406273749"><ele>124.63</ele><time>2015-10-14T09:12:24Z</time></trkpt><trkpt lat="51.9004608784" lon="-1.6404875647"><ele>124.15</ele><time>2015-10-14T09:12:39Z</time></trkpt><trkpt lat="51.9003017060" lon="-1.6403708048"><ele>124.15</ele><time>2015-10-14T09:12:53Z</time></trkpt><trkpt lat="51.9001378398" lon="-1.6402487643"><ele>123.67</ele><time>2015-10-14T09:13:10Z</time></trkpt><trkpt lat="51.8999703694" lon="-1.6400841437"><ele>123.19</ele><time>2015-10-14T09:13:28Z</time></trkpt><trkpt lat="51.8998497538" lon="-1.6399354488"><ele>122.71</ele><time>2015-10-14T09:13:43Z</time></trkpt><trkpt lat="51.8997053336" lon="-1.6398509592"><ele>122.71</ele><time>2015-10-14T09:13:58Z</time></trkpt><trkpt lat="51.8995594885" lon="-1.6397291701"><ele>122.71</ele><time>2015-10-14T09:14:13Z</time></trkpt><trkpt lat="51.8995511904" lon="-1.6397241410"><ele>122.71</ele><time>2015-10-14T09:14:14Z</time></trkpt><trkpt lat="51.8994699698" lon="-1.6396885179"><ele>123.19</ele><time>2015-10-14T09:14:29Z</time></trkpt><trkpt lat="51.8994112965" lon="-1.6396263242"><ele>123.19</ele><time>2015-10-14T09:14:37Z</time></trkpt><trkpt lat="51.8992414791" lon="-1.6395234782"><ele>122.22</ele><time>2015-10-14T09:14:56Z</time></trkpt><trkpt lat="51.8991025072" lon="-1.6394151840"><ele>121.26</ele><time>2015-10-14T09:15:11Z</time></trkpt><trkpt lat="51.8989180215" lon="-1.6392643936"><ele>120.78</ele><time>2015-10-14T09:15:31Z</time></trkpt><trkpt lat="51.8988578394" lon="-1.6391642299"><ele>120.30</ele><time>2015-10-14T09:15:38Z</time></trkpt><trkpt lat="51.8987049535" lon="-1.6390299518"><ele>119.34</ele><time>2015-10-14T09:15:54Z</time></trkpt><trkpt lat="51.8985156901" lon="-1.6388680134"><ele>118.38</ele><time>2015-10-14T09:16:15Z</time></trkpt><trkpt lat="51.8983341381" lon="-1.6387210786"><ele>117.42</ele><time>2015-10-14T09:16:34Z</time></trkpt><trkpt lat="51.8981478084" lon="-1.6385692824"><ele>116.94</ele><time>2015-10-14T09:16:54Z</time></trkpt><trkpt lat="51.8980564456" lon="-1.6385029815"><ele>116.46</ele><time>2015-10-14T09:17:05Z</time></trkpt><trkpt lat="51.8979655858" lon="-1.6384497564"><ele>123.67</ele><time>2015-10-14T09:17:15Z</time></trkpt><trkpt lat="51.8979562819" lon="-1.6384438891"><ele>116.46</ele><time>2015-10-14T09:17:16Z</time></trkpt><trkpt lat="51.8978690263" lon="-1.6384039074"><ele>115.50</ele><time>2015-10-14T09:17:27Z</time></trkpt><trkpt lat="51.8978252728" lon="-1.6383292247"><ele>115.50</ele><time>2015-10-14T09:17:32Z</time></trkpt><trkpt lat="51.8976422958" lon="-1.6381516960"><ele>115.01</ele><time>2015-10-14T09:17:50Z</time></trkpt><trkpt lat="51.8975029886" lon="-1.6380045936"><ele>115.01</ele><time>2015-10-14T09:18:09Z</time></trkpt><trkpt lat="51.8973533716" lon="-1.6378178447"><ele>115.01</ele><time>2015-10-14T09:18:25Z</time></trkpt><trkpt lat="51.8972073589" lon="-1.6376792919"><ele>115.01</ele><time>2015-10-14T09:18:41Z</time></trkpt><trkpt lat="51.8971848115" lon="-1.6375145037"><ele>115.01</ele><time>2015-10-14T09:18:53Z</time></trkpt><trkpt lat="51.8972593267" lon="-1.6374012642"><ele>114.53</ele><time>2015-10-14T09:19:07Z</time></trkpt><trkpt lat="51.8974033277" lon="-1.6371605359"><ele>114.53</ele><time>2015-10-14T09:19:28Z</time></trkpt><trkpt lat="51.8974267971" lon="-1.6370715201"><ele>113.57</ele><time>2015-10-14T09:19:42Z</time></trkpt><trkpt lat="51.8973005656" lon="-1.6369744577"><ele>114.05</ele><time>2015-10-14T09:19:57Z</time></trkpt><trkpt lat="51.8971649464" lon="-1.6368295345"><ele>115.01</ele><time>2015-10-14T09:20:12Z</time></trkpt><trkpt lat="51.8970282376" lon="-1.6367260180"><ele>115.98</ele><time>2015-10-14T09:20:28Z</time></trkpt><trkpt lat="51.8969454244" lon="-1.6366640758"><ele>116.94</ele><time>2015-10-14T09:20:37Z</time></trkpt><trkpt lat="51.8969187699" lon="-1.6366499942"><ele>116.94</ele><time>2015-10-14T09:20:40Z</time></trkpt><trkpt lat="51.8967586756" lon="-1.6364785843"><ele>116.94</ele><time>2015-10-14T09:20:57Z</time></trkpt><trkpt lat="51.8966187816" lon="-1.6363236029"><ele>117.42</ele><time>2015-10-14T09:21:14Z</time></trkpt><trkpt lat="51.8964645546" lon="-1.6361716390"><ele>117.42</ele><time>2015-10-14T09:21:32Z</time></trkpt><trkpt lat="51.8963387422" lon="-1.6360395402"><ele>117.42</ele><time>2015-10-14T09:21:48Z</time></trkpt><trkpt lat="51.8963311147" lon="-1.6360289790"><ele>117.42</ele><time>2015-10-14T09:21:49Z</time></trkpt><trkpt lat="51.8962127622" lon="-1.6358893365"><ele>117.42</ele><time>2015-10-14T09:22:03Z</time></trkpt><trkpt lat="51.8961400911" lon="-1.6358138155"><ele>117.42</ele><time>2015-10-14T09:22:12Z</time></trkpt><trkpt lat="51.8960048910" lon="-1.6356637795"><ele>117.42</ele><time>2015-10-14T09:22:29Z</time></trkpt><trkpt lat="51.8958337326" lon="-1.6354689840"><ele>117.42</ele><time>2015-10-14T09:22:49Z</time></trkpt><trkpt lat="51.8956711236" lon="-1.6353339516"><ele>117.42</ele><time>2015-10-14T09:23:09Z</time></trkpt><trkpt lat="51.8956333213" lon="-1.6352870967"><ele>117.90</ele><time>2015-10-14T09:23:13Z</time></trkpt><trkpt lat="51.8954926729" lon="-1.6351474542"><ele>117.42</ele><time>2015-10-14T09:23:30Z</time></trkpt><trkpt lat="51.8953101151" lon="-1.6349840909"><ele>117.90</ele><time>2015-10-14T09:23:51Z</time></trkpt><trkpt lat="51.8951091170" lon="-1.6347508226"><ele>117.42</ele><time>2015-10-14T09:24:13Z</time></trkpt><trkpt lat="51.8949840590" lon="-1.6346074082"><ele>117.90</ele><time>2015-10-14T09:24:28Z</time></trkpt><trkpt lat="51.8948723283" lon="-1.6344349924"><ele>117.42</ele><time>2015-10-14T09:24:43Z</time></trkpt><trkpt lat="51.8947537243" lon="-1.6342464834"><ele>116.94</ele><time>2015-10-14T09:24:59Z</time></trkpt><trkpt lat="51.8946642056" lon="-1.6340807732"><ele>116.46</ele><time>2015-10-14T09:25:14Z</time></trkpt><trkpt lat="51.8944932986" lon="-1.6339934338"><ele>116.94</ele><time>2015-10-14T09:25:33Z</time></trkpt><trkpt lat="51.8944788817" lon="-1.6339897458"><ele>117.42</ele><time>2015-10-14T09:25:34Z</time></trkpt><trkpt lat="51.8943140097" lon="-1.6338993050"><ele>116.94</ele><time>2015-10-14T09:25:50Z</time></trkpt><trkpt lat="51.8942337949" lon="-1.6337260511"><ele>116.94</ele><time>2015-10-14T09:26:04Z</time></trkpt><trkpt lat="51.8941974174" lon="-1.6336389631"><ele>116.94</ele><time>2015-10-14T09:26:11Z</time></trkpt><trkpt lat="51.8940909673" lon="-1.6334788688"><ele>116.94</ele><time>2015-10-14T09:26:26Z</time></trkpt><trkpt lat="51.8940426037" lon="-1.6333569959"><ele>116.94</ele><time>2015-10-14T09:26:35Z</time></trkpt><trkpt lat="51.8940010294" lon="-1.6332461871"><ele>116.94</ele><time>2015-10-14T09:26:43Z</time></trkpt><trkpt lat="51.8939797394" lon="-1.6331762820"><ele>116.94</ele><time>2015-10-14T09:26:48Z</time></trkpt><trkpt lat="51.8938922323" lon="-1.6330135055"><ele>116.94</ele><time>2015-10-14T09:27:03Z</time></trkpt><trkpt lat="51.8937933259" lon="-1.6328421794"><ele>117.90</ele><time>2015-10-14T09:27:19Z</time></trkpt><trkpt lat="51.8937037233" lon="-1.6325970087"><ele>117.42</ele><time>2015-10-14T09:27:37Z</time></trkpt><trkpt lat="51.8936556112" lon="-1.6323823482"><ele>117.42</ele><time>2015-10-14T09:27:52Z</time></trkpt><trkpt lat="51.8936171383" lon="-1.6322090942"><ele>116.94</ele><time>2015-10-14T09:28:05Z</time></trkpt><trkpt lat="51.8935316429" lon="-1.6320074257"><ele>116.46</ele><time>2015-10-14T09:28:21Z</time></trkpt><trkpt lat="51.8934678566" lon="-1.6319586430"><ele>115.98</ele><time>2015-10-14T09:28:30Z</time></trkpt><trkpt lat="51.8933510967" lon="-1.6318553779"><ele>115.50</ele><time>2015-10-14T09:28:45Z</time></trkpt><trkpt lat="51.8932264578" lon="-1.6317412164"><ele>115.98</ele><time>2015-10-14T09:29:00Z</time></trkpt><trkpt lat="51.8930880725" lon="-1.6316192597"><ele>115.98</ele><time>2015-10-14T09:29:16Z</time></trkpt><trkpt lat="51.8929667026" lon="-1.6315151565"><ele>115.50</ele><time>2015-10-14T09:29:30Z</time></trkpt><trkpt lat="51.8928483501" lon="-1.6314218659"><ele>114.53</ele><time>2015-10-14T09:29:44Z</time></trkpt><trkpt lat="51.8927292433" lon="-1.6312786192"><ele>114.53</ele><time>2015-10-14T09:29:59Z</time></trkpt><trkpt lat="51.8926072866" lon="-1.6311961412"><ele>114.05</ele><time>2015-10-14T09:30:13Z</time></trkpt><trkpt lat="51.8924755231" lon="-1.6311019287"><ele>114.05</ele><time>2015-10-14T09:30:28Z</time></trkpt><trkpt lat="51.8923533149" lon="-1.6310588457"><ele>114.05</ele><time>2015-10-14T09:30:42Z</time></trkpt><trkpt lat="51.8922848348" lon="-1.6310073808"><ele>114.05</ele><time>2015-10-14T09:30:49Z</time></trkpt><trkpt lat="51.8921368103" lon="-1.6309176944"><ele>114.53</ele><time>2015-10-14T09:31:04Z</time></trkpt><trkpt lat="51.8919919711" lon="-1.6308223084"><ele>115.01</ele><time>2015-10-14T09:31:20Z</time></trkpt><trkpt lat="51.8919642270" lon="-1.6307987552"><ele>114.53</ele><time>2015-10-14T09:31:23Z</time></trkpt><trkpt lat="51.8918317929" lon="-1.6306785587"><ele>115.01</ele><time>2015-10-14T09:31:38Z</time></trkpt><trkpt lat="51.8917022087" lon="-1.6305815801"><ele>115.50</ele><time>2015-10-14T09:31:52Z</time></trkpt><trkpt lat="51.8915864546" lon="-1.6304866970"><ele>114.05</ele><time>2015-10-14T09:32:05Z</time></trkpt><trkpt lat="51.8914625701" lon="-1.6303778160"><ele>114.05</ele><time>2015-10-14T09:32:18Z</time></trkpt><trkpt lat="51.8913049903" lon="-1.6302909795"><ele>114.53</ele><time>2015-10-14T09:32:35Z</time></trkpt><trkpt lat="51.8911972828" lon="-1.6300784983"><ele>114.53</ele><time>2015-10-14T09:32:48Z</time></trkpt><trkpt lat="51.8910982925" lon="-1.6299647558"><ele>115.01</ele><time>2015-10-14T09:33:03Z</time></trkpt><trkpt lat="51.8908594921" lon="-1.6298175696"><ele>115.01</ele><time>2015-10-14T09:33:22Z</time></trkpt><trkpt lat="51.8907621782" lon="-1.6297055036"><ele>114.53</ele><time>2015-10-14T09:33:35Z</time></trkpt><trkpt lat="51.8906056881" lon="-1.6295951977"><ele>114.05</ele><time>2015-10-14T09:33:54Z</time></trkpt><trkpt lat="51.8904565740" lon="-1.6294800304"><ele>114.53</ele><time>2015-10-14T09:34:11Z</time></trkpt><trkpt lat="51.8903528061" lon="-1.6293073632"><ele>114.05</ele><time>2015-10-14T09:34:30Z</time></trkpt><trkpt lat="51.8902543187" lon="-1.6291550640"><ele>113.57</ele><time>2015-10-14T09:34:44Z</time></trkpt><trkpt lat="51.8902684841" lon="-1.6291100532"><ele>112.61</ele><time>2015-10-14T09:34:57Z</time></trkpt><trkpt lat="51.8903440051" lon="-1.6288523935"><ele>111.65</ele><time>2015-10-14T09:35:13Z</time></trkpt><trkpt lat="51.8904139102" lon="-1.6286546644"><ele>111.17</ele><time>2015-10-14T09:35:27Z</time></trkpt><trkpt lat="51.8904242199" lon="-1.6285825800"><ele>110.69</ele><time>2015-10-14T09:35:30Z</time></trkpt><trkpt lat="51.8904813845" lon="-1.6283551790"><ele>109.73</ele><time>2015-10-14T09:35:46Z</time></trkpt><trkpt lat="51.8904647883" lon="-1.6281688493"><ele>109.25</ele><time>2015-10-14T09:35:55Z</time></trkpt><trkpt lat="51.8904331885" lon="-1.6279094294"><ele>108.77</ele><time>2015-10-14T09:36:10Z</time></trkpt><trkpt lat="51.8904004991" lon="-1.6278219223"><ele>108.77</ele><time>2015-10-14T09:36:17Z</time></trkpt><trkpt lat="51.8903798796" lon="-1.6277840361"><ele>109.25</ele><time>2015-10-14T09:36:20Z</time></trkpt><trkpt lat="51.8902633712" lon="-1.6276649293"><ele>108.29</ele><time>2015-10-14T09:36:34Z</time></trkpt><trkpt lat="51.8901311886" lon="-1.6275495104"><ele>108.77</ele><time>2015-10-14T09:36:48Z</time></trkpt><trkpt lat="51.8899565097" lon="-1.6274440661"><ele>108.77</ele><time>2015-10-14T09:37:04Z</time></trkpt><trkpt lat="51.8898181245" lon="-1.6273894161"><ele>108.29</ele><time>2015-10-14T09:37:19Z</time></trkpt><trkpt lat="51.8896679208" lon="-1.6272999812"><ele>108.77</ele><time>2015-10-14T09:37:34Z</time></trkpt><trkpt lat="51.8895412702" lon="-1.6272239573"><ele>108.77</ele><time>2015-10-14T09:37:48Z</time></trkpt><trkpt lat="51.8894238397" lon="-1.6271760967"><ele>108.29</ele><time>2015-10-14T09:38:01Z</time></trkpt><trkpt lat="51.8892955128" lon="-1.6270930320"><ele>108.77</ele><time>2015-10-14T09:38:16Z</time></trkpt><trkpt lat="51.8892462272" lon="-1.6270676348"><ele>108.77</ele><time>2015-10-14T09:38:21Z</time></trkpt><trkpt lat="51.8891568761" lon="-1.6269932874"><ele>108.29</ele><time>2015-10-14T09:38:30Z</time></trkpt><trkpt lat="51.8889901601" lon="-1.6269012541"><ele>108.77</ele><time>2015-10-14T09:38:47Z</time></trkpt><trkpt lat="51.8888488412" lon="-1.6268100590"><ele>108.29</ele><time>2015-10-14T09:39:03Z</time></trkpt><trkpt lat="51.8886817060" lon="-1.6267409083"><ele>108.29</ele><time>2015-10-14T09:39:21Z</time></trkpt><trkpt lat="51.8885251321" lon="-1.6266653873"><ele>108.77</ele><time>2015-10-14T09:39:36Z</time></trkpt><trkpt lat="51.8883770239" lon="-1.6265880223"><ele>108.77</ele><time>2015-10-14T09:39:52Z</time></trkpt><trkpt lat="51.8882289995" lon="-1.6264855117"><ele>108.77</ele><time>2015-10-14T09:40:07Z</time></trkpt><trkpt lat="51.8881096411" lon="-1.6264301073"><ele>108.29</ele><time>2015-10-14T09:40:20Z</time></trkpt><trkpt lat="51.8880745210" lon="-1.6264197137"><ele>108.29</ele><time>2015-10-14T09:40:25Z</time></trkpt><trkpt lat="51.8879194558" lon="-1.6263709310"><ele>108.29</ele><time>2015-10-14T09:40:40Z</time></trkpt><trkpt lat="51.8878907897" lon="-1.6263623815"><ele>108.29</ele><time>2015-10-14T09:40:43Z</time></trkpt><trkpt lat="51.8877213914" lon="-1.6262503155"><ele>108.29</ele><time>2015-10-14T09:40:58Z</time></trkpt><trkpt lat="51.8876854330" lon="-1.6262280196"><ele>108.29</ele><time>2015-10-14T09:41:01Z</time></trkpt><trkpt lat="51.8875563517" lon="-1.6261906363"><ele>108.29</ele><time>2015-10-14T09:41:15Z</time></trkpt><trkpt lat="51.8875320442" lon="-1.6261666641"><ele>108.29</ele><time>2015-10-14T09:41:34Z</time></trkpt><trkpt lat="51.8875199743" lon="-1.6261650715"><ele>108.77</ele><time>2015-10-14T09:41:54Z</time></trkpt><trkpt lat="51.8875183817" lon="-1.6261861101"><ele>108.77</ele><time>2015-10-14T09:42:12Z</time></trkpt><trkpt lat="51.8874284439" lon="-1.6262279358"><ele>108.29</ele><time>2015-10-14T09:42:28Z</time></trkpt><trkpt lat="51.8874060642" lon="-1.6262429394"><ele>108.77</ele><time>2015-10-14T09:42:31Z</time></trkpt><trkpt lat="51.8872868735" lon="-1.6263832524"><ele>109.25</ele><time>2015-10-14T09:42:47Z</time></trkpt><trkpt lat="51.8871980254" lon="-1.6265020240"><ele>110.69</ele><time>2015-10-14T09:43:00Z</time></trkpt><trkpt lat="51.8871426210" lon="-1.6265486274"><ele>111.17</ele><time>2015-10-14T09:43:14Z</time></trkpt><trkpt lat="51.8870820198" lon="-1.6266215499"><ele>112.61</ele><time>2015-10-14T09:43:32Z</time></trkpt><trkpt lat="51.8870761525" lon="-1.6266292613"><ele>112.61</ele><time>2015-10-14T09:43:34Z</time></trkpt><trkpt lat="51.8870241847" lon="-1.6266763676"><ele>114.05</ele><time>2015-10-14T09:43:50Z</time></trkpt><trkpt lat="51.8869547825" lon="-1.6268678941"><ele>115.01</ele><time>2015-10-14T09:44:07Z</time></trkpt><trkpt lat="51.8869340792" lon="-1.6268935427"><ele>115.01</ele><time>2015-10-14T09:44:27Z</time></trkpt><trkpt lat="51.8869231828" lon="-1.6269222926"><ele>115.01</ele><time>2015-10-14T09:44:52Z</time></trkpt><trkpt lat="51.8869211711" lon="-1.6269263159"><ele>115.01</ele><time>2015-10-14T09:45:15Z</time></trkpt><trkpt lat="51.8869194109" lon="-1.6269401461"><ele>115.01</ele><time>2015-10-14T09:45:36Z</time></trkpt><trkpt lat="51.8869080953" lon="-1.6269393917"><ele>115.01</ele><time>2015-10-14T09:46:02Z</time></trkpt><trkpt lat="51.8869120348" lon="-1.6269457620"><ele>115.01</ele><time>2015-10-14T09:46:25Z</time></trkpt><trkpt lat="51.8869085982" lon="-1.6269419901"><ele>115.01</ele><time>2015-10-14T09:46:47Z</time></trkpt><trkpt lat="51.8869070895" lon="-1.6269362904"><ele>115.01</ele><time>2015-10-14T09:47:14Z</time></trkpt><trkpt lat="51.8869254459" lon="-1.6269399785"><ele>114.53</ele><time>2015-10-14T09:47:36Z</time></trkpt><trkpt lat="51.8870483246" lon="-1.6270552296"><ele>115.50</ele><time>2015-10-14T09:47:54Z</time></trkpt><trkpt lat="51.8870792538" lon="-1.6271695588"><ele>115.01</ele><time>2015-10-14T09:48:13Z</time></trkpt><trkpt lat="51.8870910723" lon="-1.6272230353"><ele>115.01</ele><time>2015-10-14T09:48:17Z</time></trkpt><trkpt lat="51.8872183096" lon="-1.6274688765"><ele>114.53</ele><time>2015-10-14T09:48:31Z</time></trkpt><trkpt lat="51.8872781564" lon="-1.6275963653"><ele>114.05</ele><time>2015-10-14T09:48:43Z</time></trkpt><trkpt lat="51.8873446248" lon="-1.6278090142"><ele>114.05</ele><time>2015-10-14T09:49:01Z</time></trkpt><trkpt lat="51.8873153720" lon="-1.6278202459"><ele>113.57</ele><time>2015-10-14T09:49:28Z</time></trkpt><trkpt lat="51.8873559404" lon="-1.6278178152"><ele>113.09</ele><time>2015-10-14T09:49:50Z</time></trkpt><trkpt lat="51.8874244206" lon="-1.6277913284"><ele>113.09</ele><time>2015-10-14T09:50:06Z</time></trkpt><trkpt lat="51.8874280248" lon="-1.6277803481"><ele>113.57</ele><time>2015-10-14T09:50:29Z</time></trkpt><trkpt lat="51.8873544317" lon="-1.6276588105"><ele>113.57</ele><time>2015-10-14T09:50:44Z</time></trkpt><trkpt lat="51.8872508314" lon="-1.6274374444"><ele>113.09</ele><time>2015-10-14T09:50:58Z</time></trkpt><trkpt lat="51.8871961813" lon="-1.6272839718"><ele>114.05</ele><time>2015-10-14T09:51:10Z</time></trkpt><trkpt lat="51.8871313892" lon="-1.6271756776"><ele>113.57</ele><time>2015-10-14T09:51:22Z</time></trkpt><trkpt lat="51.8870118633" lon="-1.6270306706"><ele>113.09</ele><time>2015-10-14T09:51:39Z</time></trkpt><trkpt lat="51.8868001364" lon="-1.6269569937"><ele>113.09</ele><time>2015-10-14T09:51:55Z</time></trkpt><trkpt lat="51.8866801076" lon="-1.6271320079"><ele>114.05</ele><time>2015-10-14T09:52:12Z</time></trkpt><trkpt lat="51.8866093643" lon="-1.6272387095"><ele>114.53</ele><time>2015-10-14T09:52:23Z</time></trkpt><trkpt lat="51.8864949513" lon="-1.6274041682"><ele>115.01</ele><time>2015-10-14T09:52:39Z</time></trkpt><trkpt lat="51.8863600865" lon="-1.6276188288"><ele>116.46</ele><time>2015-10-14T09:52:57Z</time></trkpt><trkpt lat="51.8862234615" lon="-1.6278500017"><ele>116.94</ele><time>2015-10-14T09:53:14Z</time></trkpt><trkpt lat="51.8860472739" lon="-1.6281582043"><ele>117.42</ele><time>2015-10-14T09:53:34Z</time></trkpt><trkpt lat="51.8859181926" lon="-1.6283039656"><ele>118.38</ele><time>2015-10-14T09:53:51Z</time></trkpt><trkpt lat="51.8858497962" lon="-1.6284508165"><ele>119.34</ele><time>2015-10-14T09:54:09Z</time></trkpt><trkpt lat="51.8857411668" lon="-1.6286587715"><ele>120.30</ele><time>2015-10-14T09:54:26Z</time></trkpt><trkpt lat="51.8856835831" lon="-1.6288811434"><ele>121.26</ele><time>2015-10-14T09:54:41Z</time></trkpt><trkpt lat="51.8856685795" lon="-1.6289259028"><ele>121.26</ele><time>2015-10-14T09:55:00Z</time></trkpt><trkpt lat="51.8856901210" lon="-1.6289673932"><ele>121.74</ele><time>2015-10-14T09:55:14Z</time></trkpt><trkpt lat="51.8857176136" lon="-1.6289896052"><ele>121.74</ele><time>2015-10-14T09:55:31Z</time></trkpt><trkpt lat="51.8857461959" lon="-1.6290034354"><ele>121.26</ele><time>2015-10-14T09:55:46Z</time></trkpt><trkpt lat="51.8857475370" lon="-1.6289912816"><ele>121.26</ele><time>2015-10-14T09:56:12Z</time></trkpt><trkpt lat="51.8857305218" lon="-1.6289777867"><ele>121.26</ele><time>2015-10-14T09:56:37Z</time></trkpt><trkpt lat="51.8857371435" lon="-1.6289813071"><ele>120.78</ele><time>2015-10-14T09:56:56Z</time></trkpt><trkpt lat="51.8857305218" lon="-1.6289842408"><ele>120.78</ele><time>2015-10-14T09:57:15Z</time></trkpt><trkpt lat="51.8857280072" lon="-1.6289816424"><ele>120.78</ele><time>2015-10-14T09:57:36Z</time></trkpt><trkpt lat="51.8857275043" lon="-1.6289767809"><ele>120.78</ele><time>2015-10-14T09:58:01Z</time></trkpt><trkpt lat="51.8857237324" lon="-1.6289743502"><ele>120.78</ele><time>2015-10-14T09:58:24Z</time></trkpt><trkpt lat="51.8857245706" lon="-1.6289789602"><ele>120.78</ele><time>2015-10-14T09:58:40Z</time></trkpt><trkpt lat="51.8857198767" lon="-1.6289707460"><ele>120.78</ele><time>2015-10-14T09:59:14Z</time></trkpt><trkpt lat="51.8857145123" lon="-1.6289662197"><ele>120.78</ele><time>2015-10-14T09:59:45Z</time></trkpt><trkpt lat="51.8857131712" lon="-1.6289823130"><ele>120.30</ele><time>2015-10-14T10:00:16Z</time></trkpt><trkpt lat="51.8857269175" lon="-1.6289989091"><ele>120.78</ele><time>2015-10-14T10:00:33Z</time></trkpt><trkpt lat="51.8857171107" lon="-1.6290036030"><ele>120.78</ele><time>2015-10-14T10:01:02Z</time></trkpt><trkpt lat="51.8857259955" lon="-1.6290011723"><ele>119.82</ele><time>2015-10-14T10:01:21Z</time></trkpt><trkpt lat="51.8857280072" lon="-1.6289794631"><ele>120.30</ele><time>2015-10-14T10:01:41Z</time></trkpt><trkpt lat="51.8857371435" lon="-1.6289648786"><ele>120.78</ele><time>2015-10-14T10:02:10Z</time></trkpt><trkpt lat="51.8857660610" lon="-1.6289772838"><ele>121.26</ele><time>2015-10-14T10:02:28Z</time></trkpt><trkpt lat="51.8857548293" lon="-1.6289761942"><ele>120.78</ele><time>2015-10-14T10:02:54Z</time></trkpt><trkpt lat="51.8857452739" lon="-1.6289714165"><ele>120.30</ele><time>2015-10-14T10:03:15Z</time></trkpt><trkpt lat="51.8857414182" lon="-1.6289740987"><ele>120.30</ele><time>2015-10-14T10:03:44Z</time></trkpt><trkpt lat="51.8857435975" lon="-1.6289853305"><ele>120.78</ele><time>2015-10-14T10:04:10Z</time></trkpt><trkpt lat="51.8857438490" lon="-1.6289920360"><ele>120.78</ele><time>2015-10-14T10:04:41Z</time></trkpt><trkpt lat="51.8857560866" lon="-1.6290032677"><ele>117.42</ele><time>2015-10-14T10:04:54Z</time></trkpt><trkpt lat="51.8857579306" lon="-1.6290046088"><ele>120.78</ele><time>2015-10-14T10:04:55Z</time></trkpt><trkpt lat="51.8857586849" lon="-1.6290136613"><ele>121.26</ele><time>2015-10-14T10:05:08Z</time></trkpt><trkpt lat="51.8857540749" lon="-1.6290069558"><ele>120.78</ele><time>2015-10-14T10:05:26Z</time></trkpt><trkpt lat="51.8857567571" lon="-1.6290067043"><ele>121.74</ele><time>2015-10-14T10:05:51Z</time></trkpt><trkpt lat="51.8857130036" lon="-1.6291596740"><ele>122.71</ele><time>2015-10-14T10:06:05Z</time></trkpt><trkpt lat="51.8855804019" lon="-1.6294993926"><ele>123.67</ele><time>2015-10-14T10:06:23Z</time></trkpt><trkpt lat="51.8853654061" lon="-1.6299068369"><ele>124.15</ele><time>2015-10-14T10:06:43Z</time></trkpt><trkpt lat="51.8852471374" lon="-1.6300448868"><ele>123.19</ele><time>2015-10-14T10:07:01Z</time></trkpt><trkpt lat="51.8852313794" lon="-1.6301002074"><ele>123.67</ele><time>2015-10-14T10:07:21Z</time></trkpt><trkpt lat="51.8851481471" lon="-1.6301495768"><ele>122.71</ele><time>2015-10-14T10:07:36Z</time></trkpt><trkpt lat="51.8850048166" lon="-1.6302827653"><ele>122.22</ele><time>2015-10-14T10:07:55Z</time></trkpt><trkpt lat="51.8848215882" lon="-1.6304286104"><ele>122.22</ele><time>2015-10-14T10:08:12Z</time></trkpt><trkpt lat="51.8846783414" lon="-1.6305680852"><ele>123.19</ele><time>2015-10-14T10:08:31Z</time></trkpt><trkpt lat="51.8845324125" lon="-1.6307275929"><ele>123.67</ele><time>2015-10-14T10:08:50Z</time></trkpt><trkpt lat="51.8844108749" lon="-1.6308578476"><ele>124.15</ele><time>2015-10-14T10:09:07Z</time></trkpt><trkpt lat="51.8844000623" lon="-1.6308901180"><ele>124.15</ele><time>2015-10-14T10:09:31Z</time></trkpt><trkpt lat="51.8843522854" lon="-1.6310887691"><ele>123.67</ele><time>2015-10-14T10:09:46Z</time></trkpt><trkpt lat="51.8843315821" lon="-1.6311281640"><ele>123.67</ele><time>2015-10-14T10:10:10Z</time></trkpt><trkpt lat="51.8843123876" lon="-1.6312588379"><ele>124.15</ele><time>2015-10-14T10:10:29Z</time></trkpt><trkpt lat="51.8842093740" lon="-1.6314176749"><ele>125.59</ele><time>2015-10-14T10:10:48Z</time></trkpt><trkpt lat="51.8841761816" lon="-1.6314728279"><ele>126.07</ele><time>2015-10-14T10:11:05Z</time></trkpt><trkpt lat="51.8841036782" lon="-1.6316663660"><ele>126.55</ele><time>2015-10-14T10:11:25Z</time></trkpt><trkpt lat="51.8840088788" lon="-1.6318570543"><ele>127.51</ele><time>2015-10-14T10:11:45Z</time></trkpt><trkpt lat="51.8839499541" lon="-1.6320192441"><ele>128.47</ele><time>2015-10-14T10:12:01Z</time></trkpt><trkpt lat="51.8838076293" lon="-1.6322334856"><ele>129.92</ele><time>2015-10-14T10:12:20Z</time></trkpt><trkpt lat="51.8836799730" lon="-1.6322624870"><ele>130.88</ele><time>2015-10-14T10:12:38Z</time></trkpt><trkpt lat="51.8836396560" lon="-1.6323797498"><ele>131.36</ele><time>2015-10-14T10:12:56Z</time></trkpt><trkpt lat="51.8835778814" lon="-1.6324039735"><ele>131.84</ele><time>2015-10-14T10:13:17Z</time></trkpt><trkpt lat="51.8835711759" lon="-1.6323977709"><ele>131.84</ele><time>2015-10-14T10:13:38Z</time></trkpt><trkpt lat="51.8835619558" lon="-1.6323614772"><ele>131.84</ele><time>2015-10-14T10:14:07Z</time></trkpt><trkpt lat="51.8835642189" lon="-1.6323740501"><ele>131.84</ele><time>2015-10-14T10:14:32Z</time></trkpt><trkpt lat="51.8835916277" lon="-1.6323519219"><ele>131.84</ele><time>2015-10-14T10:14:58Z</time></trkpt><trkpt lat="51.8835926335" lon="-1.6323488206"><ele>128.47</ele><time>2015-10-14T10:15:05Z</time></trkpt><trkpt lat="51.8835926335" lon="-1.6323487367"><ele>132.32</ele><time>2015-10-14T10:15:06Z</time></trkpt><trkpt lat="51.8835926335" lon="-1.6323487367"><ele>131.84</ele><time>2015-10-14T10:15:07Z</time></trkpt><trkpt lat="51.8836203776" lon="-1.6323042288"><ele>138.09</ele><time>2015-10-14T10:15:24Z</time></trkpt><trkpt lat="51.8836221378" lon="-1.6323014628"><ele>132.32</ele><time>2015-10-14T10:15:25Z</time></trkpt><trkpt lat="51.8835750315" lon="-1.6323509999"><ele>132.80</ele><time>2015-10-14T10:15:46Z</time></trkpt><trkpt lat="51.8835728522" lon="-1.6323541850"><ele>132.80</ele><time>2015-10-14T10:16:11Z</time></trkpt><trkpt lat="51.8835728522" lon="-1.6323819291"><ele>132.80</ele><time>2015-10-14T10:16:25Z</time></trkpt><trkpt lat="51.8834884465" lon="-1.6325075738"><ele>133.28</ele><time>2015-10-14T10:16:45Z</time></trkpt><trkpt lat="51.8834572658" lon="-1.6325745452"><ele>134.24</ele><time>2015-10-14T10:17:06Z</time></trkpt><trkpt lat="51.8833592813" lon="-1.6327496432"><ele>135.20</ele><time>2015-10-14T10:17:29Z</time></trkpt><trkpt lat="51.8831705209" lon="-1.6329938080"><ele>135.68</ele><time>2015-10-14T10:17:48Z</time></trkpt><trkpt lat="51.8831252586" lon="-1.6331524774"><ele>136.64</ele><time>2015-10-14T10:18:06Z</time></trkpt><trkpt lat="51.8831166252" lon="-1.6332104802"><ele>136.16</ele><time>2015-10-14T10:18:25Z</time></trkpt><trkpt lat="51.8830830138" lon="-1.6332839057"><ele>136.16</ele><time>2015-10-14T10:18:43Z</time></trkpt><trkpt lat="51.8830503244" lon="-1.6331383120"><ele>135.68</ele><time>2015-10-14T10:19:01Z</time></trkpt><trkpt lat="51.8830157910" lon="-1.6330721788"><ele>135.20</ele><time>2015-10-14T10:19:08Z</time></trkpt><trkpt lat="51.8830075767" lon="-1.6331066284"><ele>135.68</ele><time>2015-10-14T10:19:11Z</time></trkpt><trkpt lat="51.8829897232" lon="-1.6333724186"><ele>135.20</ele><time>2015-10-14T10:19:22Z</time></trkpt><trkpt lat="51.8830520008" lon="-1.6334217880"><ele>136.64</ele><time>2015-10-14T10:19:42Z</time></trkpt><trkpt lat="51.8829401862" lon="-1.6335509531"><ele>137.13</ele><time>2015-10-14T10:20:04Z</time></trkpt><trkpt lat="51.8828208279" lon="-1.6337263025"><ele>137.61</ele><time>2015-10-14T10:20:21Z</time></trkpt><trkpt lat="51.8828106020" lon="-1.6338956170"><ele>137.61</ele><time>2015-10-14T10:20:33Z</time></trkpt><trkpt lat="51.8828743882" lon="-1.6340616625"><ele>138.09</ele><time>2015-10-14T10:20:53Z</time></trkpt><trkpt lat="51.8828868773" lon="-1.6341438051"><ele>137.61</ele><time>2015-10-14T10:21:10Z</time></trkpt><trkpt lat="51.8828853685" lon="-1.6342118662"><ele>138.09</ele><time>2015-10-14T10:21:32Z</time></trkpt><trkpt lat="51.8828886375" lon="-1.6343349125"><ele>137.61</ele><time>2015-10-14T10:21:48Z</time></trkpt><trkpt lat="51.8831284437" lon="-1.6345657501"><ele>137.61</ele><time>2015-10-14T10:22:04Z</time></trkpt><trkpt lat="51.8832234945" lon="-1.6347242519"><ele>138.09</ele><time>2015-10-14T10:22:20Z</time></trkpt><trkpt lat="51.8832857721" lon="-1.6348226555"><ele>137.61</ele><time>2015-10-14T10:22:36Z</time></trkpt><trkpt lat="51.8833000213" lon="-1.6349457856"><ele>138.09</ele><time>2015-10-14T10:22:53Z</time></trkpt><trkpt lat="51.8833462056" lon="-1.6350674070"><ele>138.09</ele><time>2015-10-14T10:23:08Z</time></trkpt><trkpt lat="51.8834015261" lon="-1.6350978334"><ele>137.61</ele><time>2015-10-14T10:23:23Z</time></trkpt><trkpt lat="51.8835313618" lon="-1.6353963967"><ele>137.61</ele><time>2015-10-14T10:23:41Z</time></trkpt><trkpt lat="51.8836111575" lon="-1.6355635319"><ele>137.61</ele><time>2015-10-14T10:23:58Z</time></trkpt><trkpt lat="51.8836448528" lon="-1.6357461736"><ele>137.61</ele><time>2015-10-14T10:24:17Z</time></trkpt><trkpt lat="51.8836473674" lon="-1.6358200181"><ele>137.61</ele><time>2015-10-14T10:24:39Z</time></trkpt><trkpt lat="51.8836609460" lon="-1.6358493548"><ele>138.09</ele><time>2015-10-14T10:24:57Z</time></trkpt><trkpt lat="51.8837299291" lon="-1.6359592415"><ele>137.13</ele><time>2015-10-14T10:25:14Z</time></trkpt><trkpt lat="51.8838092219" lon="-1.6361084394"><ele>137.13</ele><time>2015-10-14T10:25:33Z</time></trkpt><trkpt lat="51.8838833179" lon="-1.6362431366"><ele>137.61</ele><time>2015-10-14T10:25:52Z</time></trkpt><trkpt lat="51.8838900235" lon="-1.6362877283"><ele>136.64</ele><time>2015-10-14T10:26:11Z</time></trkpt><trkpt lat="51.8839188572" lon="-1.6363882273"><ele>136.16</ele><time>2015-10-14T10:26:32Z</time></trkpt><trkpt lat="51.8840564881" lon="-1.6366658360"><ele>135.68</ele><time>2015-10-14T10:26:49Z</time></trkpt><trkpt lat="51.8841791991" lon="-1.6368939914"><ele>135.68</ele><time>2015-10-14T10:27:09Z</time></trkpt><trkpt lat="51.8841992319" lon="-1.6369947419"><ele>136.16</ele><time>2015-10-14T10:27:23Z</time></trkpt><trkpt lat="51.8841962982" lon="-1.6372197960"><ele>136.16</ele><time>2015-10-14T10:27:37Z</time></trkpt><trkpt lat="51.8842110503" lon="-1.6374060418"><ele>136.16</ele><time>2015-10-14T10:27:53Z</time></trkpt><trkpt lat="51.8842651136" lon="-1.6376159247"><ele>136.64</ele><time>2015-10-14T10:28:10Z</time></trkpt><trkpt lat="51.8843324203" lon="-1.6377130710"><ele>136.16</ele><time>2015-10-14T10:28:28Z</time></trkpt><trkpt lat="51.8844696321" lon="-1.6378983948"><ele>136.16</ele><time>2015-10-14T10:28:47Z</time></trkpt><trkpt lat="51.8846402038" lon="-1.6380886640"><ele>136.16</ele><time>2015-10-14T10:29:07Z</time></trkpt><trkpt lat="51.8847044930" lon="-1.6380976327"><ele>135.68</ele><time>2015-10-14T10:29:27Z</time></trkpt><trkpt lat="51.8847098574" lon="-1.6381177492"><ele>135.68</ele><time>2015-10-14T10:29:49Z</time></trkpt><trkpt lat="51.8847079296" lon="-1.6381197609"><ele>135.68</ele><time>2015-10-14T10:30:11Z</time></trkpt><trkpt lat="51.8847592268" lon="-1.6382788494"><ele>135.68</ele><time>2015-10-14T10:30:30Z</time></trkpt><trkpt lat="51.8848085124" lon="-1.6385792568"><ele>136.64</ele><time>2015-10-14T10:30:47Z</time></trkpt><trkpt lat="51.8848254438" lon="-1.6388463043"><ele>137.13</ele><time>2015-10-14T10:31:08Z</time></trkpt><trkpt lat="51.8848927505" lon="-1.6389872879"><ele>137.61</ele><time>2015-10-14T10:31:24Z</time></trkpt><trkpt lat="51.8849202432" lon="-1.6392467916"><ele>137.13</ele><time>2015-10-14T10:31:43Z</time></trkpt><trkpt lat="51.8849916570" lon="-1.6394219734"><ele>137.13</ele><time>2015-10-14T10:32:00Z</time></trkpt><trkpt lat="51.8850649148" lon="-1.6395892762"><ele>137.61</ele><time>2015-10-14T10:32:16Z</time></trkpt><trkpt lat="51.8851565290" lon="-1.6397776175"><ele>137.61</ele><time>2015-10-14T10:32:34Z</time></trkpt><trkpt lat="51.8851956725" lon="-1.6398556530"><ele>138.09</ele><time>2015-10-14T10:32:51Z</time></trkpt><trkpt lat="51.8853269331" lon="-1.6400760133"><ele>138.09</ele><time>2015-10-14T10:33:10Z</time></trkpt><trkpt lat="51.8853969220" lon="-1.6402571462"><ele>137.61</ele><time>2015-10-14T10:33:28Z</time></trkpt><trkpt lat="51.8854921404" lon="-1.6403520294"><ele>137.61</ele><time>2015-10-14T10:33:42Z</time></trkpt><trkpt lat="51.8855360616" lon="-1.6404138040"><ele>137.61</ele><time>2015-10-14T10:33:59Z</time></trkpt><trkpt lat="51.8856063858" lon="-1.6404929291"><ele>137.61</ele><time>2015-10-14T10:34:17Z</time></trkpt><trkpt lat="51.8855830841" lon="-1.6405646782"><ele>137.61</ele><time>2015-10-14T10:34:39Z</time></trkpt><trkpt lat="51.8855747022" lon="-1.6405884828"><ele>137.61</ele><time>2015-10-14T10:35:06Z</time></trkpt><trkpt lat="51.8855765462" lon="-1.6406231001"><ele>137.13</ele><time>2015-10-14T10:35:19Z</time></trkpt><trkpt lat="51.8856513966" lon="-1.6407810152"><ele>137.13</ele><time>2015-10-14T10:35:43Z</time></trkpt><trkpt lat="51.8856818229" lon="-1.6408204101"><ele>136.64</ele><time>2015-10-14T10:36:02Z</time></trkpt><trkpt lat="51.8856844213" lon="-1.6408300493"><ele>136.64</ele><time>2015-10-14T10:36:25Z</time></trkpt><trkpt lat="51.8856819905" lon="-1.6408476513"><ele>136.64</ele><time>2015-10-14T10:36:51Z</time></trkpt><trkpt lat="51.8856869359" lon="-1.6408689413"><ele>136.16</ele><time>2015-10-14T10:37:11Z</time></trkpt><trkpt lat="51.8857231457" lon="-1.6409730446"><ele>136.16</ele><time>2015-10-14T10:37:32Z</time></trkpt><trkpt lat="51.8857675698" lon="-1.6411633138"><ele>135.68</ele><time>2015-10-14T10:37:54Z</time></trkpt><trkpt lat="51.8858272489" lon="-1.6415303573"><ele>135.20</ele><time>2015-10-14T10:38:11Z</time></trkpt><trkpt lat="51.8858664762" lon="-1.6416563373"><ele>135.20</ele><time>2015-10-14T10:38:24Z</time></trkpt><trkpt lat="51.8859282508" lon="-1.6417730134"><ele>135.68</ele><time>2015-10-14T10:38:40Z</time></trkpt><trkpt lat="51.8859611917" lon="-1.6418506298"><ele>135.68</ele><time>2015-10-14T10:38:47Z</time></trkpt><trkpt lat="51.8860611878" lon="-1.6421053559"><ele>135.68</ele><time>2015-10-14T10:39:07Z</time></trkpt><trkpt lat="51.8861289136" lon="-1.6423330083"><ele>135.20</ele><time>2015-10-14T10:39:25Z</time></trkpt><trkpt lat="51.8862207793" lon="-1.6426067613"><ele>135.20</ele><time>2015-10-14T10:39:46Z</time></trkpt><trkpt lat="51.8862942047" lon="-1.6428142972"><ele>135.20</ele><time>2015-10-14T10:40:04Z</time></trkpt><trkpt lat="51.8863677140" lon="-1.6430221684"><ele>134.72</ele><time>2015-10-14T10:40:20Z</time></trkpt><trkpt lat="51.8864495214" lon="-1.6432107612"><ele>133.76</ele><time>2015-10-14T10:40:35Z</time></trkpt><trkpt lat="51.8865271378" lon="-1.6434219014"><ele>132.80</ele><time>2015-10-14T10:40:51Z</time></trkpt><trkpt lat="51.8865422253" lon="-1.6434576083"><ele>132.80</ele><time>2015-10-14T10:41:08Z</time></trkpt><trkpt lat="51.8865431473" lon="-1.6434669960"><ele>132.80</ele><time>2015-10-14T10:41:40Z</time></trkpt><trkpt lat="51.8865389563" lon="-1.6434602905"><ele>132.80</ele><time>2015-10-14T10:42:02Z</time></trkpt><trkpt lat="51.8865453266" lon="-1.6434700973"><ele>132.80</ele><time>2015-10-14T10:42:21Z</time></trkpt><trkpt lat="51.8865742441" lon="-1.6435520723"><ele>131.36</ele><time>2015-10-14T10:42:44Z</time></trkpt><trkpt lat="51.8867229391" lon="-1.6438756138"><ele>130.40</ele><time>2015-10-14T10:43:02Z</time></trkpt><trkpt lat="51.8868302274" lon="-1.6441713274"><ele>127.99</ele><time>2015-10-14T10:43:17Z</time></trkpt><trkpt lat="51.8869096879" lon="-1.6444688849"><ele>126.55</ele><time>2015-10-14T10:43:29Z</time></trkpt><trkpt lat="51.8869392760" lon="-1.6445851419"><ele>126.07</ele><time>2015-10-14T10:43:33Z</time></trkpt><trkpt lat="51.8871111888" lon="-1.6445874050"><ele>126.07</ele><time>2015-10-14T10:43:46Z</time></trkpt><trkpt lat="51.8872747198" lon="-1.6445074417"><ele>126.07</ele><time>2015-10-14T10:44:00Z</time></trkpt><trkpt lat="51.8872819282" lon="-1.6445026640"><ele>126.55</ele><time>2015-10-14T10:44:01Z</time></trkpt><trkpt lat="51.8874679226" lon="-1.6444000695"><ele>124.63</ele><time>2015-10-14T10:44:19Z</time></trkpt><trkpt lat="51.8876368180" lon="-1.6442892607"><ele>126.07</ele><time>2015-10-14T10:44:38Z</time></trkpt><trkpt lat="51.8876411766" lon="-1.6442921106"><ele>125.59</ele><time>2015-10-14T10:44:42Z</time></trkpt><trkpt lat="51.8878155202" lon="-1.6441958025"><ele>125.59</ele><time>2015-10-14T10:44:58Z</time></trkpt><trkpt lat="51.8879622035" lon="-1.6441003326"><ele>125.11</ele><time>2015-10-14T10:45:14Z</time></trkpt><trkpt lat="51.8880284205" lon="-1.6440577526"><ele>125.11</ele><time>2015-10-14T10:45:23Z</time></trkpt><trkpt lat="51.8880577572" lon="-1.6440304276"><ele>125.11</ele><time>2015-10-14T10:45:26Z</time></trkpt><trkpt lat="51.8881619442" lon="-1.6439575888"><ele>124.63</ele><time>2015-10-14T10:45:36Z</time></trkpt><trkpt lat="51.8883557338" lon="-1.6438394878"><ele>123.67</ele><time>2015-10-14T10:45:55Z</time></trkpt><trkpt lat="51.8885779381" lon="-1.6437090654"><ele>122.22</ele><time>2015-10-14T10:46:16Z</time></trkpt><trkpt lat="51.8887664471" lon="-1.6436326224"><ele>121.74</ele><time>2015-10-14T10:46:34Z</time></trkpt><trkpt lat="51.8889520224" lon="-1.6435892880"><ele>121.26</ele><time>2015-10-14T10:46:52Z</time></trkpt><trkpt lat="51.8891443871" lon="-1.6435572691"><ele>120.78</ele><time>2015-10-14T10:47:13Z</time></trkpt><trkpt lat="51.8893146235" lon="-1.6435389128"><ele>120.78</ele><time>2015-10-14T10:47:31Z</time></trkpt><trkpt lat="51.8894322217" lon="-1.6435285192"><ele>120.30</ele><time>2015-10-14T10:47:46Z</time></trkpt><trkpt lat="51.8896312080" lon="-1.6434975900"><ele>119.34</ele><time>2015-10-14T10:48:05Z</time></trkpt><trkpt lat="51.8896700162" lon="-1.6434889566"><ele>119.82</ele><time>2015-10-14T10:48:09Z</time></trkpt><trkpt lat="51.8898793962" lon="-1.6434496455"><ele>118.86</ele><time>2015-10-14T10:48:28Z</time></trkpt><trkpt lat="51.8900763709" lon="-1.6434267629"><ele>117.90</ele><time>2015-10-14T10:48:46Z</time></trkpt><trkpt lat="51.8903234694" lon="-1.6433864459"><ele>116.94</ele><time>2015-10-14T10:49:08Z</time></trkpt><trkpt lat="51.8905645330" lon="-1.6433616355"><ele>115.50</ele><time>2015-10-14T10:49:29Z</time></trkpt><trkpt lat="51.8906520400" lon="-1.6433621384"><ele>115.01</ele><time>2015-10-14T10:49:37Z</time></trkpt><trkpt lat="51.8906784430" lon="-1.6433581989"><ele>115.50</ele><time>2015-10-14T10:49:39Z</time></trkpt><trkpt lat="51.8908048421" lon="-1.6433749627"><ele>115.01</ele><time>2015-10-14T10:49:55Z</time></trkpt><trkpt lat="51.8908969592" lon="-1.6434486397"><ele>114.53</ele><time>2015-10-14T10:50:09Z</time></trkpt><trkpt lat="51.8909777608" lon="-1.6435132641"><ele>115.01</ele><time>2015-10-14T10:50:24Z</time></trkpt><trkpt lat="51.8910053372" lon="-1.6434406769"><ele>115.01</ele><time>2015-10-14T10:50:41Z</time></trkpt><trkpt lat="51.8911899906" lon="-1.6434391681"><ele>114.53</ele><time>2015-10-14T10:50:57Z</time></trkpt><trkpt lat="51.8914142065" lon="-1.6434560996"><ele>114.05</ele><time>2015-10-14T10:51:16Z</time></trkpt><trkpt lat="51.8916133605" lon="-1.6434783954"><ele>115.01</ele><time>2015-10-14T10:51:34Z</time></trkpt><trkpt lat="51.8918058928" lon="-1.6434924770"><ele>115.01</ele><time>2015-10-14T10:51:49Z</time></trkpt><trkpt lat="51.8920521531" lon="-1.6434233263"><ele>115.98</ele><time>2015-10-14T10:52:11Z</time></trkpt><trkpt lat="51.8922649696" lon="-1.6433494817"><ele>116.46</ele><time>2015-10-14T10:52:32Z</time></trkpt><trkpt lat="51.8922883552" lon="-1.6433908883"><ele>116.94</ele><time>2015-10-14T10:52:44Z</time></trkpt><trkpt lat="51.8922766205" lon="-1.6433880385"><ele>116.94</ele><time>2015-10-14T10:52:59Z</time></trkpt><trkpt lat="51.8923103996" lon="-1.6433952469"><ele>116.94</ele><time>2015-10-14T10:53:25Z</time></trkpt><trkpt lat="51.8923417479" lon="-1.6434030421"><ele>117.42</ele><time>2015-10-14T10:53:28Z</time></trkpt><trkpt lat="51.8924931251" lon="-1.6434016172"><ele>117.42</ele><time>2015-10-14T10:53:43Z</time></trkpt><trkpt lat="51.8925875053" lon="-1.6434033774"><ele>116.94</ele><time>2015-10-14T10:53:53Z</time></trkpt><trkpt lat="51.8926156685" lon="-1.6433966719"><ele>116.94</ele><time>2015-10-14T10:53:56Z</time></trkpt><trkpt lat="51.8927929457" lon="-1.6433891281"><ele>116.94</ele><time>2015-10-14T10:54:15Z</time></trkpt><trkpt lat="51.8929226138" lon="-1.6433984321"><ele>117.90</ele><time>2015-10-14T10:54:30Z</time></trkpt><trkpt lat="51.8929327559" lon="-1.6434033774"><ele>117.90</ele><time>2015-10-14T10:54:35Z</time></trkpt><trkpt lat="51.8929815385" lon="-1.6433935706"><ele>117.90</ele><time>2015-10-14T10:54:40Z</time></trkpt><trkpt lat="51.8931371067" lon="-1.6433939897"><ele>117.90</ele><time>2015-10-14T10:54:55Z</time></trkpt><trkpt lat="51.8933203351" lon="-1.6434050538"><ele>116.94</ele><time>2015-10-14T10:55:13Z</time></trkpt><trkpt lat="51.8934870511" lon="-1.6433973424"><ele>116.94</ele><time>2015-10-14T10:55:30Z</time></trkpt><trkpt lat="51.8936427869" lon="-1.6433986835"><ele>116.46</ele><time>2015-10-14T10:55:46Z</time></trkpt><trkpt lat="51.8936536834" lon="-1.6434032097"><ele>116.46</ele><time>2015-10-14T10:55:47Z</time></trkpt><trkpt lat="51.8937938288" lon="-1.6433535889"><ele>116.46</ele><time>2015-10-14T10:56:04Z</time></trkpt><trkpt lat="51.8938328046" lon="-1.6433430277"><ele>115.98</ele><time>2015-10-14T10:56:23Z</time></trkpt><trkpt lat="51.8938331399" lon="-1.6433426086"><ele>115.50</ele><time>2015-10-14T10:56:40Z</time></trkpt><trkpt lat="51.8938597944" lon="-1.6433782317"><ele>115.98</ele><time>2015-10-14T10:57:00Z</time></trkpt><trkpt lat="51.8938615546" lon="-1.6433883738"><ele>115.50</ele><time>2015-10-14T10:57:17Z</time></trkpt><trkpt lat="51.8938848563" lon="-1.6433416866"><ele>116.46</ele><time>2015-10-14T10:57:27Z</time></trkpt><trkpt lat="51.8939033803" lon="-1.6433249228"><ele>115.01</ele><time>2015-10-14T10:57:29Z</time></trkpt><trkpt lat="51.8940539192" lon="-1.6432212386"><ele>115.01</ele><time>2015-10-14T10:57:44Z</time></trkpt><trkpt lat="51.8942082301" lon="-1.6430903971"><ele>114.05</ele><time>2015-10-14T10:57:58Z</time></trkpt><trkpt lat="51.8943761196" lon="-1.6429619864"><ele>114.05</ele><time>2015-10-14T10:58:12Z</time></trkpt><trkpt lat="51.8945395667" lon="-1.6428801790"><ele>112.61</ele><time>2015-10-14T10:58:26Z</time></trkpt><trkpt lat="51.8945685681" lon="-1.6428697016"><ele>113.09</ele><time>2015-10-14T10:58:29Z</time></trkpt><trkpt lat="51.8947163410" lon="-1.6427639220"><ele>111.65</ele><time>2015-10-14T10:58:45Z</time></trkpt><trkpt lat="51.8948490266" lon="-1.6426898260"><ele>110.69</ele><time>2015-10-14T10:58:59Z</time></trkpt><trkpt lat="51.8949077837" lon="-1.6426559631"><ele>110.21</ele><time>2015-10-14T10:59:05Z</time></trkpt><trkpt lat="51.8950403854" lon="-1.6425839625"><ele>109.73</ele><time>2015-10-14T10:59:23Z</time></trkpt><trkpt lat="51.8950403016" lon="-1.6425838787"><ele>109.73</ele><time>2015-10-14T10:59:24Z</time></trkpt><trkpt lat="51.8950679619" lon="-1.6425670311"><ele>109.73</ele><time>2015-10-14T10:59:27Z</time></trkpt><trkpt lat="51.8952526990" lon="-1.6424075235"><ele>108.77</ele><time>2015-10-14T10:59:45Z</time></trkpt><trkpt lat="51.8953649327" lon="-1.6423230339"><ele>108.77</ele><time>2015-10-14T11:00:02Z</time></trkpt><trkpt lat="51.8954077642" lon="-1.6422510333"><ele>109.73</ele><time>2015-10-14T11:00:17Z</time></trkpt><trkpt lat="51.8954210076" lon="-1.6422295757"><ele>108.29</ele><time>2015-10-14T11:00:33Z</time></trkpt><trkpt lat="51.8954329100" lon="-1.6421931982"><ele>108.29</ele><time>2015-10-14T11:00:56Z</time></trkpt><trkpt lat="51.8955011386" lon="-1.6422517039"><ele>108.77</ele><time>2015-10-14T11:01:08Z</time></trkpt><trkpt lat="51.8957225047" lon="-1.6424397938"><ele>108.77</ele><time>2015-10-14T11:01:26Z</time></trkpt><trkpt lat="51.8957841955" lon="-1.6424989700"><ele>108.77</ele><time>2015-10-14T11:01:33Z</time></trkpt><trkpt lat="51.8958230037" lon="-1.6425349284"><ele>108.77</ele><time>2015-10-14T11:01:37Z</time></trkpt><trkpt lat="51.8959919829" lon="-1.6427080985"><ele>108.77</ele><time>2015-10-14T11:01:57Z</time></trkpt><trkpt lat="51.8961370736" lon="-1.6428596433"><ele>108.77</ele><time>2015-10-14T11:02:13Z</time></trkpt><trkpt lat="51.8961601239" lon="-1.6428890638"><ele>109.25</ele><time>2015-10-14T11:02:27Z</time></trkpt><trkpt lat="51.8962041289" lon="-1.6429422051"><ele>109.73</ele><time>2015-10-14T11:02:34Z</time></trkpt><trkpt lat="51.8962257542" lon="-1.6429506708"><ele>110.21</ele><time>2015-10-14T11:02:36Z</time></trkpt><trkpt lat="51.8963444419" lon="-1.6431022994"><ele>111.17</ele><time>2015-10-14T11:02:51Z</time></trkpt><trkpt lat="51.8964664824" lon="-1.6432317160"><ele>112.13</ele><time>2015-10-14T11:03:06Z</time></trkpt><trkpt lat="51.8964807317" lon="-1.6432471387"><ele>112.13</ele><time>2015-10-14T11:03:08Z</time></trkpt><trkpt lat="51.8965238146" lon="-1.6432958376"><ele>113.09</ele><time>2015-10-14T11:03:14Z</time></trkpt><trkpt lat="51.8966264091" lon="-1.6434172075"><ele>113.09</ele><time>2015-10-14T11:03:27Z</time></trkpt><trkpt lat="51.8967354577" lon="-1.6435302794"><ele>113.57</ele><time>2015-10-14T11:03:41Z</time></trkpt><trkpt lat="51.8967601843" lon="-1.6435466241"><ele>113.57</ele><time>2015-10-14T11:03:44Z</time></trkpt><trkpt lat="51.8968109787" lon="-1.6436172836"><ele>113.57</ele><time>2015-10-14T11:04:00Z</time></trkpt><trkpt lat="51.8968986534" lon="-1.6437045392"><ele>113.57</ele><time>2015-10-14T11:04:15Z</time></trkpt><trkpt lat="51.8969386350" lon="-1.6437461972"><ele>114.05</ele><time>2015-10-14T11:04:28Z</time></trkpt><trkpt lat="51.8970190175" lon="-1.6438379791"><ele>114.53</ele><time>2015-10-14T11:04:41Z</time></trkpt><trkpt lat="51.8971703108" lon="-1.6440010909"><ele>115.01</ele><time>2015-10-14T11:04:57Z</time></trkpt><trkpt lat="51.8972800300" lon="-1.6441505402"><ele>115.50</ele><time>2015-10-14T11:05:13Z</time></trkpt><trkpt lat="51.8974096980" lon="-1.6443018336"><ele>115.50</ele><time>2015-10-14T11:05:29Z</time></trkpt><trkpt lat="51.8974841293" lon="-1.6443877481"><ele>115.50</ele><time>2015-10-14T11:05:38Z</time></trkpt><trkpt lat="51.8976328243" lon="-1.6445518658"><ele>116.46</ele><time>2015-10-14T11:05:56Z</time></trkpt><trkpt lat="51.8976785056" lon="-1.6446125507"><ele>116.94</ele><time>2015-10-14T11:06:06Z</time></trkpt><trkpt lat="51.8977272045" lon="-1.6446590703"><ele>116.94</ele><time>2015-10-14T11:06:21Z</time></trkpt><trkpt lat="51.8978406116" lon="-1.6447822843"><ele>117.42</ele><time>2015-10-14T11:06:36Z</time></trkpt><trkpt lat="51.8979077507" lon="-1.6448753234"><ele>117.90</ele><time>2015-10-14T11:06:50Z</time></trkpt><trkpt lat="51.8980258517" lon="-1.6450295504"><ele>118.38</ele><time>2015-10-14T11:07:05Z</time></trkpt><trkpt lat="51.8981778156" lon="-1.6451972723"><ele>118.38</ele><time>2015-10-14T11:07:23Z</time></trkpt><trkpt lat="51.8982897978" lon="-1.6453345679"><ele>119.34</ele><time>2015-10-14T11:07:37Z</time></trkpt><trkpt lat="51.8983600382" lon="-1.6453936603"><ele>119.34</ele><time>2015-10-14T11:07:56Z</time></trkpt><trkpt lat="51.8983593676" lon="-1.6453960072"><ele>119.34</ele><time>2015-10-14T11:08:16Z</time></trkpt><trkpt lat="51.8983645644" lon="-1.6453981027"><ele>119.34</ele><time>2015-10-14T11:08:36Z</time></trkpt><trkpt lat="51.8983635586" lon="-1.6454011202"><ele>119.34</ele><time>2015-10-14T11:08:59Z</time></trkpt><trkpt lat="51.8983631395" lon="-1.6454012878"><ele>119.34</ele><time>2015-10-14T11:09:20Z</time></trkpt><trkpt lat="51.8983613793" lon="-1.6453972645"><ele>119.34</ele><time>2015-10-14T11:09:54Z</time></trkpt><trkpt lat="51.8983423524" lon="-1.6453608032"><ele>118.86</ele><time>2015-10-14T11:10:06Z</time></trkpt><trkpt lat="51.8982289452" lon="-1.6451944225"><ele>118.86</ele><time>2015-10-14T11:10:23Z</time></trkpt><trkpt lat="51.8982075714" lon="-1.6451386828"><ele>123.19</ele><time>2015-10-14T11:10:27Z</time></trkpt><trkpt lat="51.8982933182" lon="-1.6452731285"><ele>118.38</ele><time>2015-10-14T11:10:29Z</time></trkpt><trkpt lat="51.8983047176" lon="-1.6452831868"><ele>118.38</ele><time>2015-10-14T11:10:30Z</time></trkpt><trkpt lat="51.8982989341" lon="-1.6452923231"><ele>119.34</ele><time>2015-10-14T11:10:46Z</time></trkpt><trkpt lat="51.8982343934" lon="-1.6452944186"><ele>115.50</ele><time>2015-10-14T11:11:01Z</time></trkpt><trkpt lat="51.8982299510" lon="-1.6452945862"><ele>117.90</ele><time>2015-10-14T11:11:02Z</time></trkpt><trkpt lat="51.8982236646" lon="-1.6452948377"><ele>123.19</ele><time>2015-10-14T11:11:03Z</time></trkpt><trkpt lat="51.8982146960" lon="-1.6452950891"><ele>122.22</ele><time>2015-10-14T11:11:05Z</time></trkpt><trkpt lat="51.8982106727" lon="-1.6452952567"><ele>119.82</ele><time>2015-10-14T11:11:06Z</time></trkpt><trkpt lat="51.8984220643" lon="-1.6454568598"><ele>119.82</ele><time>2015-10-14T11:11:23Z</time></trkpt><trkpt lat="51.8984165322" lon="-1.6455038823"><ele>119.82</ele><time>2015-10-14T11:11:38Z</time></trkpt><trkpt lat="51.8984113354" lon="-1.6455069836"><ele>120.30</ele><time>2015-10-14T11:11:54Z</time></trkpt><trkpt lat="51.8984482158" lon="-1.6455314588"><ele>119.82</ele><time>2015-10-14T11:12:23Z</time></trkpt><trkpt lat="51.8985778000" lon="-1.6457072273"><ele>119.82</ele><time>2015-10-14T11:12:38Z</time></trkpt><trkpt lat="51.8986405805" lon="-1.6457775515"><ele>120.30</ele><time>2015-10-14T11:12:54Z</time></trkpt><trkpt lat="51.8986373954" lon="-1.6457714327"><ele>120.30</ele><time>2015-10-14T11:13:16Z</time></trkpt><trkpt lat="51.8986355513" lon="-1.6457746178"><ele>120.30</ele><time>2015-10-14T11:13:27Z</time></trkpt><trkpt lat="51.8987036962" lon="-1.6459020227"><ele>120.30</ele><time>2015-10-14T11:13:42Z</time></trkpt><trkpt lat="51.8987875991" lon="-1.6460060421"><ele>120.78</ele><time>2015-10-14T11:13:52Z</time></trkpt><trkpt lat="51.8989579193" lon="-1.6461925395"><ele>120.30</ele><time>2015-10-14T11:14:11Z</time></trkpt><trkpt lat="51.8990868330" lon="-1.6463146638"><ele>120.78</ele><time>2015-10-14T11:14:25Z</time></trkpt><trkpt lat="51.8992116395" lon="-1.6464575753"><ele>121.26</ele><time>2015-10-14T11:14:40Z</time></trkpt><trkpt lat="51.8992972188" lon="-1.6465369519"><ele>120.78</ele><time>2015-10-14T11:14:54Z</time></trkpt><trkpt lat="51.8994402979" lon="-1.6466775164"><ele>120.78</ele><time>2015-10-14T11:15:10Z</time></trkpt><trkpt lat="51.8994972948" lon="-1.6467508581"><ele>120.78</ele><time>2015-10-14T11:15:29Z</time></trkpt><trkpt lat="51.8995444849" lon="-1.6468045861"><ele>120.30</ele><time>2015-10-14T11:15:35Z</time></trkpt><trkpt lat="51.8997110333" lon="-1.6469490062"><ele>119.82</ele><time>2015-10-14T11:15:53Z</time></trkpt><trkpt lat="51.8997693714" lon="-1.6469301470"><ele>120.30</ele><time>2015-10-14T11:16:04Z</time></trkpt><trkpt lat="51.8998749834" lon="-1.6467152350"><ele>120.30</ele><time>2015-10-14T11:16:19Z</time></trkpt><trkpt lat="51.8999809306" lon="-1.6465450823"><ele>120.30</ele><time>2015-10-14T11:16:33Z</time></trkpt><trkpt lat="51.9001001213" lon="-1.6463227104"><ele>119.82</ele><time>2015-10-14T11:16:50Z</time></trkpt><trkpt lat="51.9001919869" lon="-1.6461658850"><ele>119.82</ele><time>2015-10-14T11:17:06Z</time></trkpt><trkpt lat="51.9001991954" lon="-1.6461527254"><ele>119.34</ele><time>2015-10-14T11:17:30Z</time></trkpt><trkpt lat="51.9002603833" lon="-1.6460915376"><ele>119.34</ele><time>2015-10-14T11:17:45Z</time></trkpt><trkpt lat="51.9003750477" lon="-1.6458652262"><ele>118.86</ele><time>2015-10-14T11:18:03Z</time></trkpt><trkpt lat="51.9004190527" lon="-1.6458551679"><ele>118.86</ele><time>2015-10-14T11:18:18Z</time></trkpt><trkpt lat="51.9004515745" lon="-1.6458159406"><ele>117.90</ele><time>2015-10-14T11:18:36Z</time></trkpt><trkpt lat="51.9005318731" lon="-1.6456651501"><ele>117.90</ele><time>2015-10-14T11:18:53Z</time></trkpt><trkpt lat="51.9005711004" lon="-1.6456441116"><ele>117.90</ele><time>2015-10-14T11:19:03Z</time></trkpt><trkpt lat="51.9005788956" lon="-1.6456032917"><ele>117.90</ele><time>2015-10-14T11:19:05Z</time></trkpt><trkpt lat="51.9006874412" lon="-1.6453827638"><ele>119.34</ele><time>2015-10-14T11:19:23Z</time></trkpt><trkpt lat="51.9007467851" lon="-1.6451136209"><ele>118.86</ele><time>2015-10-14T11:19:38Z</time></trkpt><trkpt lat="51.9008081406" lon="-1.6448860522"><ele>118.38</ele><time>2015-10-14T11:19:51Z</time></trkpt><trkpt lat="51.9008171093" lon="-1.6448553745"><ele>113.09</ele><time>2015-10-14T11:19:53Z</time></trkpt><trkpt lat="51.9008199591" lon="-1.6448430531"><ele>118.38</ele><time>2015-10-14T11:19:54Z</time></trkpt><trkpt lat="51.9008280057" lon="-1.6448043287"><ele>117.90</ele><time>2015-10-14T11:20:02Z</time></trkpt><trkpt lat="51.9008604437" lon="-1.6446810309"><ele>115.98</ele><time>2015-10-14T11:20:13Z</time></trkpt><trkpt lat="51.9008760341" lon="-1.6445566434"><ele>117.90</ele><time>2015-10-14T11:20:18Z</time></trkpt><trkpt lat="51.9008949772" lon="-1.6444217786"><ele>116.94</ele><time>2015-10-14T11:20:26Z</time></trkpt><trkpt lat="51.9009129982" lon="-1.6444396321"><ele>117.42</ele><time>2015-10-14T11:20:43Z</time></trkpt><trkpt lat="51.9009136688" lon="-1.6445577331"><ele>119.34</ele><time>2015-10-14T11:20:57Z</time></trkpt><trkpt lat="51.9008952286" lon="-1.6446436476"><ele>119.34</ele><time>2015-10-14T11:21:02Z</time></trkpt><trkpt lat="51.9008941390" lon="-1.6446775105"><ele>115.98</ele><time>2015-10-14T11:21:04Z</time></trkpt><trkpt lat="51.9009010121" lon="-1.6447110381"><ele>115.50</ele><time>2015-10-14T11:21:06Z</time></trkpt><trkpt lat="51.9009247329" lon="-1.6447904147"><ele>118.86</ele><time>2015-10-14T11:21:13Z</time></trkpt><trkpt lat="51.9009069633" lon="-1.6447858047"><ele>114.53</ele><time>2015-10-14T11:21:21Z</time></trkpt><trkpt lat="51.9009342045" lon="-1.6448251158"><ele>119.34</ele><time>2015-10-14T11:21:25Z</time></trkpt><trkpt lat="51.9009513874" lon="-1.6448597331"><ele>115.98</ele><time>2015-10-14T11:21:27Z</time></trkpt><trkpt lat="51.9009606913" lon="-1.6448712163"><ele>112.13</ele><time>2015-10-14T11:21:28Z</time></trkpt><trkpt lat="51.9009690732" lon="-1.6448809393"><ele>115.50</ele><time>2015-10-14T11:21:29Z</time></trkpt><trkpt lat="51.9010005891" lon="-1.6449288838"><ele>117.42</ele><time>2015-10-14T11:21:33Z</time></trkpt><trkpt lat="51.9010518864" lon="-1.6449770797"><ele>115.01</ele><time>2015-10-14T11:21:38Z</time></trkpt><trkpt lat="51.9010823965" lon="-1.6450084280"><ele>115.98</ele><time>2015-10-14T11:21:41Z</time></trkpt><trkpt lat="51.9010911975" lon="-1.6450236831"><ele>116.46</ele><time>2015-10-14T11:21:42Z</time></trkpt><trkpt lat="51.9011912774" lon="-1.6451068316"><ele>115.50</ele><time>2015-10-14T11:21:50Z</time></trkpt><trkpt lat="51.9012305886" lon="-1.6451528482"><ele>117.90</ele><time>2015-10-14T11:21:54Z</time></trkpt><trkpt lat="51.9012474362" lon="-1.6451676004"><ele>114.53</ele><time>2015-10-14T11:21:56Z</time></trkpt><trkpt lat="51.9012502022" lon="-1.6451709531"><ele>115.01</ele><time>2015-10-14T11:21:57Z</time></trkpt><trkpt lat="51.9013414811" lon="-1.6452551074"><ele>115.01</ele><time>2015-10-14T11:22:12Z</time></trkpt><trkpt lat="51.9013883360" lon="-1.6452929936"><ele>112.13</ele><time>2015-10-14T11:22:17Z</time></trkpt><trkpt lat="51.9014147390" lon="-1.6453211568"><ele>115.01</ele><time>2015-10-14T11:22:20Z</time></trkpt><trkpt lat="51.9014222827" lon="-1.6453323886"><ele>111.65</ele><time>2015-10-14T11:22:21Z</time></trkpt><trkpt lat="51.9014300779" lon="-1.6453538463"><ele>115.98</ele><time>2015-10-14T11:22:22Z</time></trkpt><trkpt lat="51.9014490210" lon="-1.6454000305"><ele>112.61</ele><time>2015-10-14T11:22:24Z</time></trkpt><trkpt lat="51.9014594983" lon="-1.6454152856"><ele>115.50</ele><time>2015-10-14T11:22:25Z</time></trkpt><trkpt lat="51.9014765974" lon="-1.6454418562"><ele>112.61</ele><time>2015-10-14T11:22:27Z</time></trkpt><trkpt lat="51.9014844764" lon="-1.6454524174"><ele>112.61</ele><time>2015-10-14T11:22:28Z</time></trkpt><trkpt lat="51.9015389588" lon="-1.6455352306"><ele>114.05</ele><time>2015-10-14T11:22:37Z</time></trkpt><trkpt lat="51.9015806168" lon="-1.6455860250"><ele>114.53</ele><time>2015-10-14T11:22:41Z</time></trkpt><trkpt lat="51.9016093668" lon="-1.6456491407"><ele>111.17</ele><time>2015-10-14T11:22:45Z</time></trkpt><trkpt lat="51.9016139768" lon="-1.6456653178"><ele>112.13</ele><time>2015-10-14T11:22:46Z</time></trkpt><trkpt lat="51.9016200956" lon="-1.6456799023"><ele>113.09</ele><time>2015-10-14T11:22:47Z</time></trkpt><trkpt lat="51.9016806968" lon="-1.6457791440"><ele>113.57</ele><time>2015-10-14T11:22:53Z</time></trkpt><trkpt lat="51.9017082732" lon="-1.6458229814"><ele>110.69</ele><time>2015-10-14T11:22:57Z</time></trkpt><trkpt lat="51.9017155655" lon="-1.6458332911"><ele>111.17</ele><time>2015-10-14T11:22:58Z</time></trkpt><trkpt lat="51.9017310720" lon="-1.6458581854"><ele>112.61</ele><time>2015-10-14T11:23:00Z</time></trkpt><trkpt lat="51.9017462432" lon="-1.6458906233"><ele>110.69</ele><time>2015-10-14T11:23:02Z</time></trkpt><trkpt lat="51.9017644320" lon="-1.6459436808"><ele>113.09</ele><time>2015-10-14T11:23:05Z</time></trkpt><trkpt lat="51.9017595705" lon="-1.6459674016"><ele>114.05</ele><time>2015-10-14T11:23:07Z</time></trkpt><trkpt lat="51.9017672818" lon="-1.6459855903"><ele>110.69</ele><time>2015-10-14T11:23:09Z</time></trkpt><trkpt lat="51.9017713889" lon="-1.6459953971"><ele>113.57</ele><time>2015-10-14T11:23:10Z</time></trkpt><trkpt lat="51.9017788488" lon="-1.6460100655"><ele>114.05</ele><time>2015-10-14T11:23:11Z</time></trkpt><trkpt lat="51.9018200040" lon="-1.6460694093"><ele>113.57</ele><time>2015-10-14T11:23:16Z</time></trkpt><trkpt lat="51.9018556271" lon="-1.6461031884"><ele>109.25</ele><time>2015-10-14T11:23:19Z</time></trkpt><trkpt lat="51.9018830359" lon="-1.6461456008"><ele>112.61</ele><time>2015-10-14T11:23:22Z</time></trkpt><trkpt lat="51.9019132946" lon="-1.6462559067"><ele>105.40</ele><time>2015-10-14T11:23:42Z</time></trkpt><trkpt lat="51.9019144680" lon="-1.6462542303"><ele>115.01</ele><time>2015-10-14T11:23:43Z</time></trkpt><trkpt lat="51.9019186590" lon="-1.6462465189"><ele>111.65</ele><time>2015-10-14T11:23:45Z</time></trkpt><trkpt lat="51.9019148871" lon="-1.6462390590"><ele>119.34</ele><time>2015-10-14T11:23:59Z</time></trkpt><trkpt lat="51.9019152224" lon="-1.6462398972"><ele>111.65</ele><time>2015-10-14T11:24:00Z</time></trkpt><trkpt lat="51.9019759912" lon="-1.6463834792"><ele>111.17</ele><time>2015-10-14T11:24:13Z</time></trkpt><trkpt lat="51.9019966945" lon="-1.6464269813"><ele>113.57</ele><time>2015-10-14T11:24:21Z</time></trkpt><trkpt lat="51.9019958563" lon="-1.6464307532"><ele>111.65</ele><time>2015-10-14T11:24:23Z</time></trkpt><trkpt lat="51.9019949343" lon="-1.6464349441"><ele>112.13</ele><time>2015-10-14T11:24:27Z</time></trkpt><trkpt lat="51.9020287134" lon="-1.6464957967"><ele>111.17</ele><time>2015-10-14T11:24:32Z</time></trkpt><trkpt lat="51.9021454733" lon="-1.6467620060"><ele>108.77</ele><time>2015-10-14T11:24:46Z</time></trkpt><trkpt lat="51.9021687750" lon="-1.6468109563"><ele>110.21</ele><time>2015-10-14T11:24:49Z</time></trkpt><trkpt lat="51.9022591319" lon="-1.6469013132"><ele>108.77</ele><time>2015-10-14T11:25:05Z</time></trkpt><trkpt lat="51.9023530092" lon="-1.6469961964"><ele>108.29</ele><time>2015-10-14T11:25:15Z</time></trkpt><trkpt lat="51.9025240839" lon="-1.6471328214"><ele>110.69</ele><time>2015-10-14T11:25:32Z</time></trkpt><trkpt lat="51.9025381655" lon="-1.6471536085"><ele>106.84</ele><time>2015-10-14T11:25:34Z</time></trkpt><trkpt lat="51.9025454577" lon="-1.6471642535"><ele>107.32</ele><time>2015-10-14T11:25:35Z</time></trkpt><trkpt lat="51.9025649875" lon="-1.6471925844"><ele>110.69</ele><time>2015-10-14T11:25:38Z</time></trkpt><trkpt lat="51.9025673345" lon="-1.6472029779"><ele>107.32</ele><time>2015-10-14T11:25:39Z</time></trkpt><trkpt lat="51.9025687594" lon="-1.6472247709"><ele>106.84</ele><time>2015-10-14T11:25:41Z</time></trkpt><trkpt lat="51.9025689270" lon="-1.6472354997"><ele>110.69</ele><time>2015-10-14T11:25:42Z</time></trkpt><trkpt lat="51.9025676697" lon="-1.6472411994"><ele>110.21</ele><time>2015-10-14T11:25:43Z</time></trkpt><trkpt lat="51.9025599584" lon="-1.6472906526"><ele>106.36</ele><time>2015-10-14T11:25:47Z</time></trkpt><trkpt lat="51.9025670830" lon="-1.6473539360"><ele>110.69</ele><time>2015-10-14T11:25:51Z</time></trkpt><trkpt lat="51.9025682565" lon="-1.6473802552"><ele>104.44</ele><time>2015-10-14T11:25:53Z</time></trkpt><trkpt lat="51.9025674183" lon="-1.6473932471"><ele>107.32</ele><time>2015-10-14T11:25:54Z</time></trkpt><trkpt lat="51.9025694299" lon="-1.6474242602"><ele>108.29</ele><time>2015-10-14T11:25:56Z</time></trkpt><trkpt lat="51.9026358146" lon="-1.6475397628"><ele>106.36</ele><time>2015-10-14T11:26:06Z</time></trkpt><trkpt lat="51.9026970863" lon="-1.6475464683"><ele>109.73</ele><time>2015-10-14T11:26:12Z</time></trkpt><trkpt lat="51.9027223997" lon="-1.6475361586"><ele>108.29</ele><time>2015-10-14T11:26:14Z</time></trkpt><trkpt lat="51.9027486350" lon="-1.6475006193"><ele>111.65</ele><time>2015-10-14T11:26:25Z</time></trkpt><trkpt lat="51.9027667399" lon="-1.6474779043"><ele>107.32</ele><time>2015-10-14T11:26:34Z</time></trkpt><trkpt lat="51.9027670752" lon="-1.6474780720"><ele>109.25</ele><time>2015-10-14T11:26:35Z</time></trkpt></trkseg></trk></gpx>